Huvudsida
METAR-TAF:

METAR-TAF

Flygplatser :

Warszawa, Polen

Warszawa-Frédéric Chopins flygplats

latitud: 52-10N, longitud: 020-58E, höjd: 106 m

Aktuellt väderrapport

Denna rapport gjordes för 21 minuter sedan, klockan 04:30 UTC
Vind 9 kt från nordost
Temperatur -7°C
Fuktighet 73%
Tryck 1024 hPa
Sikt 10 km eller mer
Spridda moln på en höjd av 2600 ft

METAR: EPWA 230430Z 05009KT 9999 SCT026 M07/M11 Q1024 NOSIG

Tid: 05:51 (04:51 UTC)

Väderprognos

Denna rapport gjordes för 5 timmar och 21 minuter sedan, klockan 23:30 UTC
Prognos gäller från 23 kl. 00 UTC till 23 kl. 24 UTC
Vind 7 kt från ost/nordost
Sikt 10 km eller mer
Brutna moln på en höjd av 2500 ft

TAF: EPWA 222330Z 2300/2324 07007KT 9999 BKN025

Aktuella väderrapporter och prognoser från 4000 flygplatser (METAR- och TAF-rapporter).

De tillgängliga stationerna syns som gula och röda prickar på kartan.

För musen över prickarna för att se namnen på stationerna.

Klicka sedan för att få väderrapporter och prognoser.

För att ändra kartan: Klicka på de gröna knapparna med ett svart kors på för att zooma in; den gröna knappen med ett streck på för att zooma ut; eller på de gröna pilarna för angränsande kartor.


METAR-TAF: